Time;durP1;ratioP1;P1;durP2;ratioP2;P2;SDS_P1;SDS_P2;PMS_P1;PMS_P2;Temp;Humidity;BMP_temperature;BMP_pressure;BME280_temperature;BME280_humidity;BME280_pressure;Samples;Min_cycle;Max_cycle;Signal;HPM_P1;HPM_P2
2021/08/27 00:00:34;;;;;;;;;;;;;;;13.70;84.15;97540.70;1735988;82;21118;-90
2021/08/27 00:03:02;;;;;;;;;;;;;;;13.65;84.15;97541.14;1733265;82;24529;-88
2021/08/27 00:05:30;;;;;;;;;;;;;;;13.66;84.14;97536.23;1731862;82;20206;-89
2021/08/27 00:07:57;;;;;;;;;;;;;;;13.66;84.18;97525.72;1735359;82;24820;-89
2021/08/27 00:10:23;;;;;;;;;;;;;;;13.64;84.21;97525.02;1726881;82;22268;-89
2021/08/27 00:12:49;;;;;;;;;;;;;;;13.66;84.22;97520.94;1721706;82;21009;-90
2021/08/27 00:15:22;;;;;;;;;;;;;;;13.81;84.24;97529.48;1723862;82;24424;-90
2021/08/27 00:17:48;;;;;;;;;;;;;;;13.94;84.26;97524.34;1724187;83;20224;-89
2021/08/27 00:20:14;;;;;;;;;;;;;;;14.05;84.25;97523.63;1723456;83;24875;-89
2021/08/27 00:22:46;;;;;;;;;;;;;;;14.14;84.23;97529.78;1723400;83;22093;-89
2021/08/27 00:25:12;;;;;;;;;;;;;;;14.20;84.21;97535.75;1724032;83;26841;-89
2021/08/27 00:27:39;;;;;;;;;;;;;;;14.20;84.17;97531.80;1724071;82;20262;-90
2021/08/27 00:30:05;;;;;;;;;;;;;;;14.14;84.13;97529.78;1724734;81;20278;-89
2021/08/27 00:32:31;;;;;;;;;;;;;;;14.08;84.09;97522.00;1723671;83;24952;-90
2021/08/27 00:35:03;;;;;;;;;;;;;;;13.98;84.05;97523.89;1723663;82;22054;-89
2021/08/27 00:37:27;;;;;;;;;;;;;;;13.86;84.01;97523.77;1723608;82;26006;-89
2021/08/27 00:39:56;;;;;;;;;;;;;;;13.77;83.96;97518.92;1724051;82;24468;-89
2021/08/27 00:42:23;;;;;;;;;;;;;;;13.71;83.95;97516.06;1723515;83;20196;-89
2021/08/27 00:44:50;;;;;;;;;;;;;;;13.66;83.92;97512.56;1723892;83;24791;-89
2021/08/27 00:47:16;;;;;;;;;;;;;;;13.66;83.95;97515.20;1723974;82;21973;-90
2021/08/27 00:49:42;;;;;;;;;;;;;;;13.74;83.98;97521.04;1723878;83;26003;-90
2021/08/27 00:52:11;;;;;;;;;;;;;;;13.79;84.00;97515.67;1719812;82;24409;-89
2021/08/27 00:54:41;;;;;;;;;;;;;;;13.82;84.06;97520.62;1723614;82;20167;-89
2021/08/27 00:57:07;;;;;;;;;;;;;;;13.77;84.09;97517.61;1723357;82;24858;-88
2021/08/27 00:59:36;;;;;;;;;;;;;;;13.75;84.07;97518.23;1724111;82;21917;-89
2021/08/27 01:02:02;;;;;;;;;;;;;;;13.76;84.12;97519.89;1723593;82;25996;-88
2021/08/27 01:04:30;;;;;;;;;;;;;;;13.70;84.13;97517.86;1723268;82;25225;-89
2021/08/27 01:06:58;;;;;;;;;;;;;;;13.67;84.12;97518.66;1723569;82;20434;-88
2021/08/27 01:09:34;;;;;;;;;;;;;;;13.63;84.13;97523.39;1725549;82;25638;-87
2021/08/27 01:12:16;;;;;;;;;;;;;;;13.62;84.12;97524.36;1714736;82;22230;-88
2021/08/27 01:14:44;;;;;;;;;;;;;;;13.66;84.15;97521.77;1723704;83;25981;-88
2021/08/27 01:17:16;;;;;;;;;;;;;;;13.68;84.19;97524.26;1723863;82;24452;-88
2021/08/27 01:19:48;;;;;;;;;;;;;;;13.84;84.24;97525.73;1723819;83;20498;-88
2021/08/27 01:22:32;;;;;;;;;;;;;;;13.91;84.30;97533.34;1724032;83;24767;-88
2021/08/27 01:24:59;;;;;;;;;;;;;;;14.02;84.35;97537.59;1721387;82;22220;-87
2021/08/27 01:27:26;;;;;;;;;;;;;;;14.15;84.38;97536.70;1711552;83;26106;-88
2021/08/27 01:30:00;;;;;;;;;;;;;;;14.21;84.39;97538.25;1723665;83;25270;-88
2021/08/27 01:32:40;;;;;;;;;;;;;;;14.30;84.37;97536.98;1724080;82;20236;-88
2021/08/27 01:35:07;;;;;;;;;;;;;;;14.35;84.35;97538.17;1723679;82;24756;-86
2021/08/27 01:37:34;;;;;;;;;;;;;;;14.37;84.31;97538.89;1723419;82;21902;-86
2021/08/27 01:40:00;;;;;;;;;;;;;;;14.34;84.32;97542.30;1723055;82;26113;-85
2021/08/27 01:42:27;;;;;;;;;;;;;;;14.28;84.29;97546.85;1723027;82;24497;-86
2021/08/27 01:44:55;;;;;;;;;;;;;;;14.23;84.26;97545.51;1723369;82;20281;-86
2021/08/27 01:47:23;;;;;;;;;;;;;;;14.27;84.23;97548.66;1721317;82;24835;-86
2021/08/27 01:49:49;;;;;;;;;;;;;;;14.28;84.22;97547.69;1723622;82;21934;-86
2021/08/27 01:52:18;;;;;;;;;;;;;;;14.28;84.22;97552.95;1723157;82;26226;-85
2021/08/27 01:54:45;;;;;;;;;;;;;;;14.28;84.21;97552.95;1721847;82;25236;-86
2021/08/27 01:57:13;;;;;;;;;;;;;;;14.27;84.18;97553.09;1724425;82;20180;-86
2021/08/27 01:59:40;;;;;;;;;;;;;;;14.28;84.19;97549.48;1721934;82;24782;-86
2021/08/27 02:02:07;;;;;;;;;;;;;;;14.32;84.15;97552.97;1723466;82;22056;-86
2021/08/27 02:04:36;;;;;;;;;;;;;;;14.24;84.14;97547.63;1723253;81;26690;-86
2021/08/27 02:07:03;;;;;;;;;;;;;;;14.19;84.11;97557.78;1723205;83;24535;-86
2021/08/27 02:09:30;;;;;;;;;;;;;;;14.20;84.10;97558.12;1722512;82;20447;-86
2021/08/27 02:11:57;;;;;;;;;;;;;;;14.23;84.11;97559.16;1724260;82;24931;-86
2021/08/27 02:14:24;;;;;;;;;;;;;;;14.31;84.10;97555.27;1726171;82;22168;-87
2021/08/27 02:16:50;;;;;;;;;;;;;;;14.31;84.11;97555.27;1724827;82;25946;-86
2021/08/27 02:19:17;;;;;;;;;;;;;;;14.30;84.08;97560.18;1720539;82;24577;-86
2021/08/27 02:21:45;;;;;;;;;;;;;;;14.35;84.10;97556.60;1724478;82;20272;-86
2021/08/27 02:24:12;;;;;;;;;;;;;;;14.33;84.06;97544.10;1725183;82;24854;-86
2021/08/27 02:26:40;;;;;;;;;;;;;;;14.33;84.09;97559.89;1722621;82;22848;-86
2021/08/27 02:29:11;;;;;;;;;;;;;;;14.28;84.07;97562.64;1723447;82;26098;-86
2021/08/27 02:31:37;;;;;;;;;;;;;;;14.37;84.06;97558.64;1721695;82;24429;-86
2021/08/27 02:34:04;;;;;;;;;;;;;;;14.38;84.05;97560.78;1723146;82;20311;-87
2021/08/27 02:36:30;;;;;;;;;;;;;;;14.35;84.05;97563.19;1723008;82;24712;-87
2021/08/27 02:38:57;;;;;;;;;;;;;;;14.31;84.06;97559.20;1727714;82;22032;-86
2021/08/27 02:41:23;;;;;;;;;;;;;;;14.30;84.04;97565.45;1723771;83;25993;-86
2021/08/27 02:43:53;;;;;;;;;;;;;;;14.34;84.06;97558.92;1723906;82;24406;-86
2021/08/27 02:46:20;;;;;;;;;;;;;;;14.34;84.06;97565.50;1721513;82;20486;-86
2021/08/27 02:48:47;;;;;;;;;;;;;;;14.25;84.06;97563.27;1725739;82;24936;-86
2021/08/27 02:51:18;;;;;;;;;;;;;;;14.29;84.06;97569.08;1722461;82;22698;-86
2021/08/27 02:53:46;;;;;;;;;;;;;;;14.37;84.07;97569.66;1726225;81;27985;-86
2021/08/27 02:56:14;;;;;;;;;;;;;;;14.41;84.04;97571.83;1724244;81;24610;-86
2021/08/27 02:58:40;;;;;;;;;;;;;;;14.45;84.05;97573.20;1725077;81;20265;-86
2021/08/27 03:01:08;;;;;;;;;;;;;;;14.47;84.04;97573.02;1723409;82;24732;-86
2021/08/27 03:03:41;;;;;;;;;;;;;;;14.43;84.07;97571.20;1726554;82;21981;-86
2021/08/27 03:06:09;;;;;;;;;;;;;;;14.36;84.07;97567.96;1722161;81;26050;-87
2021/08/27 03:08:37;;;;;;;;;;;;;;;14.30;84.09;97574.66;1723174;82;24628;-89
2021/08/27 03:11:05;;;;;;;;;;;;;;;14.24;84.09;97573.45;1722418;81;20230;-89
2021/08/27 03:13:36;;;;;;;;;;;;;;;14.21;84.11;97572.45;1723452;81;24939;-90
2021/08/27 03:16:03;;;;;;;;;;;;;;;14.15;84.10;97571.73;1724737;81;21978;-90
2021/08/27 03:18:31;;;;;;;;;;;;;;;14.14;84.11;97577.14;1723488;82;25967;-89
2021/08/27 03:20:59;;;;;;;;;;;;;;;14.14;84.13;97577.14;1723029;83;24582;-88
2021/08/27 03:23:27;;;;;;;;;;;;;;;14.14;84.17;97574.51;1724661;81;20350;-88
2021/08/27 03:26:00;;;;;;;;;;;;;;;14.16;84.17;97579.98;1723390;82;24936;-88
2021/08/27 03:28:28;;;;;;;;;;;;;;;14.23;84.23;97586.78;1722418;82;22054;-87
2021/08/27 03:30:55;;;;;;;;;;;;;;;14.27;84.22;97588.62;1723491;82;26021;-89
2021/08/27 03:33:23;;;;;;;;;;;;;;;14.33;84.25;97591.97;1725430;81;25249;-90
2021/08/27 03:35:50;;;;;;;;;;;;;;;14.35;84.24;97593.94;1724758;81;20227;-89
2021/08/27 03:38:17;;;;;;;;;;;;;;;14.33;84.26;97593.28;1725569;81;26313;-90
2021/08/27 03:40:44;;;;;;;;;;;;;;;14.29;84.23;97586.67;1724628;81;22182;-89
2021/08/27 03:43:14;;;;;;;;;;;;;;;14.22;84.23;97589.08;1726137;81;26795;-89
2021/08/27 03:45:41;;;;;;;;;;;;;;;14.15;84.24;97586.20;1723888;81;24526;-89
2021/08/27 03:48:07;;;;;;;;;;;;;;;14.16;84.25;97584.41;1725732;81;20561;-89
2021/08/27 03:50:38;;;;;;;;;;;;;;;14.14;84.26;97581.92;1725998;80;24798;-89
2021/08/27 03:53:01;;;;;;;;;;;;;;;14.13;84.27;97576.80;1734103;81;21523;-89
2021/08/27 03:55:28;;;;;;;;;;;;;;;14.08;84.29;97583.00;1726748;81;26146;-89
2021/08/27 03:57:56;;;;;;;;;;;;;;;14.02;84.29;97579.16;1721384;82;25202;-89
2021/08/27 04:00:23;;;;;;;;;;;;;;;13.97;84.29;97575.33;1740542;81;20180;-90
2021/08/27 04:02:51;;;;;;;;;;;;;;;13.91;84.29;97583.84;1725790;81;24859;-89
2021/08/27 04:05:19;;;;;;;;;;;;;;;13.93;84.31;97575.29;1723438;82;22013;-90
2021/08/27 04:07:45;;;;;;;;;;;;;;;13.97;84.34;97581.41;1721881;83;26209;-88
2021/08/27 04:10:12;;;;;;;;;;;;;;;13.96;84.35;97582.91;1723453;83;24476;-87
2021/08/27 04:12:40;;;;;;;;;;;;;;;13.99;84.37;97584.73;1714595;83;20225;-88
2021/08/27 04:15:17;;;;;;;;;;;;;;;14.09;84.41;97582.86;1717054;82;24819;-88
2021/08/27 04:17:43;;;;;;;;;;;;;;;14.21;84.46;97588.25;1710853;82;22093;-89
2021/08/27 04:20:12;;;;;;;;;;;;;;;14.32;84.48;97585.87;1680125;83;41411;-89
2021/08/27 04:22:38;;;;;;;;;;;;;;;14.38;84.50;97597.15;1712322;82;24457;-89
2021/08/27 04:25:05;;;;;;;;;;;;;;;14.41;84.51;97600.78;1713154;82;20916;-88
2021/08/27 04:27:31;;;;;;;;;;;;;;;14.44;84.48;97603.13;1722272;82;24700;-88
2021/08/27 04:30:00;;;;;;;;;;;;;;;14.45;84.48;97603.96;1712543;82;20817;-88
2021/08/27 04:32:26;;;;;;;;;;;;;;;14.41;84.48;97606.05;1714933;82;25945;-88
2021/08/27 04:34:52;;;;;;;;;;;;;;;14.44;84.47;97604.45;1711482;82;20302;-89
2021/08/27 04:37:18;;;;;;;;;;;;;;;14.51;84.45;97611.25;1715114;82;20247;-89
2021/08/27 04:39:44;;;;;;;;;;;;;;;14.56;84.41;97612.42;1716797;82;20820;-87
2021/08/27 04:42:11;;;;;;;;;;;;;;;14.57;84.37;97612.77;1715258;82;20790;-87
2021/08/27 04:44:37;;;;;;;;;;;;;;;14.56;84.34;97616.37;1713874;83;26079;-89
2021/08/27 04:47:09;;;;;;;;;;;;;;;14.55;84.33;97616.55;1712034;83;24549;-89
2021/08/27 04:49:39;;;;;;;;;;;;;;;14.54;84.32;97615.72;1713356;83;20315;-89
2021/08/27 04:52:12;;;;;;;;;;;;;;;14.53;84.30;97615.86;1711154;82;24629;-88
2021/08/27 04:54:44;;;;;;;;;;;;;;;14.51;84.29;97619.16;1716036;82;22073;-88
2021/08/27 04:57:14;;;;;;;;;;;;;;;14.41;84.25;97616.58;1712422;82;21393;-88
2021/08/27 04:59:43;;;;;;;;;;;;;;;14.41;84.27;97615.27;1710040;82;24664;-89
2021/08/27 05:02:14;;;;;;;;;;;;;;;14.46;84.24;97614.80;1715293;82;20284;-89
2021/08/27 05:04:41;;;;;;;;;;;;;;;14.46;84.24;97618.27;1723247;82;25260;-88
2021/08/27 05:07:12;;;;;;;;;;;;;;;14.43;84.23;97614.63;1713725;83;21990;-89
2021/08/27 05:09:35;;;;;;;;;;;;;;;14.41;84.22;97610.48;1709321;82;26151;-89
2021/08/27 05:12:10;;;;;;;;;;;;;;;14.43;84.20;97611.17;1715941;83;24547;-88
2021/08/27 05:14:39;;;;;;;;;;;;;;;14.43;84.19;97617.27;1713259;83;20309;-88
2021/08/27 05:17:14;;;;;;;;;;;;;;;14.43;84.16;97612.00;1715248;82;25466;-89
2021/08/27 05:19:40;;;;;;;;;;;;;;;14.37;84.14;97606.02;1711627;82;21805;-90
2021/08/27 05:22:06;;;;;;;;;;;;;;;14.41;84.16;97612.62;1711456;82;25994;-90
2021/08/27 05:24:35;;;;;;;;;;;;;;;14.41;84.16;97612.62;1716191;82;24475;-89
2021/08/27 05:27:01;;;;;;;;;;;;;;;14.42;84.20;97614.29;1715988;82;20141;-90
2021/08/27 05:29:26;;;;;;;;;;;;;;;14.38;84.21;97616.89;1718071;82;20326;-90
2021/08/27 05:31:52;;;;;;;;;;;;;;;14.40;84.26;97615.44;1713423;82;20294;-90
2021/08/27 05:34:20;;;;;;;;;;;;;;;14.46;84.28;97624.02;1715939;82;20966;-89
2021/08/27 05:36:46;;;;;;;;;;;;;;;14.53;84.32;97626.39;1713751;82;24597;-88
2021/08/27 05:39:18;;;;;;;;;;;;;;;14.57;84.33;97630.37;1713140;82;20231;-89
2021/08/27 05:41:44;;;;;;;;;;;;;;;14.54;84.34;97634.15;1712675;83;24907;-88
2021/08/27 05:44:10;;;;;;;;;;;;;;;14.53;84.36;97633.80;1716055;82;21910;-88
2021/08/27 05:46:38;;;;;;;;;;;;;;;14.58;84.37;97636.81;1714455;82;26902;-88
2021/08/27 05:49:13;;;;;;;;;;;;;;;14.65;84.34;97633.09;1714062;83;24489;-88
2021/08/27 05:51:51;;;;;;;;;;;;;;;14.68;84.35;97631.94;1718125;82;20553;-88
2021/08/27 05:54:17;;;;;;;;;;;;;;;14.67;84.33;97635.09;1714153;83;24725;-89
2021/08/27 05:56:45;;;;;;;;;;;;;;;14.62;84.32;97636.83;1713734;82;22024;-88
2021/08/27 05:59:11;;;;;;;;;;;;;;;14.62;84.30;97642.10;1710864;83;26039;-88
2021/08/27 06:01:46;;;;;;;;;;;;;;;14.60;84.30;97636.66;1712858;83;24372;-88
2021/08/27 06:04:13;;;;;;;;;;;;;;;14.59;84.29;97638.95;1712601;82;20490;-88
2021/08/27 06:06:40;;;;;;;;;;;;;;;14.61;84.30;97643.11;1712356;83;24400;-89
2021/08/27 06:09:06;;;;;;;;;;;;;;;14.68;84.26;97639.35;1712765;83;22754;-89
2021/08/27 06:11:37;;;;;;;;;;;;;;;14.71;84.24;97648.77;1715891;83;26028;-88
2021/08/27 06:14:04;;;;;;;;;;;;;;;14.71;84.23;97650.92;1714577;83;24644;-89
2021/08/27 06:16:31;;;;;;;;;;;;;;;14.68;84.19;97648.57;1713580;83;20153;-89
2021/08/27 06:18:58;;;;;;;;;;;;;;;14.65;84.18;97649.72;1716137;83;24771;-89
2021/08/27 06:21:24;;;;;;;;;;;;;;;14.64;84.14;97649.38;1714216;82;21385;-90
2021/08/27 06:23:52;;;;;;;;;;;;;;;14.62;84.14;97653.13;1711328;82;20862;-90
2021/08/27 06:26:23;;;;;;;;;;;;;;;14.59;84.12;97658.22;1715645;82;24116;-90
2021/08/27 06:28:49;;;;;;;;;;;;;;;14.54;84.09;97653.89;1713030;82;20160;-90
2021/08/27 06:31:15;;;;;;;;;;;;;;;14.48;84.07;97651.86;1711980;82;24816;-89
2021/08/27 06:33:41;;;;;;;;;;;;;;;14.48;84.07;97658.93;1714992;82;20335;-90
2021/08/27 06:36:07;;;;;;;;;;;;;;;14.48;84.07;97658.93;1714031;82;20986;-89
2021/08/27 06:38:33;;;;;;;;;;;;;;;14.48;84.06;97652.34;1711948;82;24464;-90
2021/08/27 06:41:00;;;;;;;;;;;;;;;14.50;84.03;97651.23;1714491;82;20192;-90
2021/08/27 06:43:27;;;;;;;;;;;;;;;14.52;84.00;97653.20;1716566;82;24764;-90
2021/08/27 06:45:54;;;;;;;;;;;;;;;14.53;84.01;97652.23;1713862;82;21952;-90
2021/08/27 06:48:27;;;;;;;;;;;;;;;14.50;83.98;97649.92;1712498;83;26103;-88
2021/08/27 06:50:53;;;;;;;;;;;;;;;14.52;83.97;97655.01;1710177;82;24505;-88
2021/08/27 06:53:20;;;;;;;;;;;;;;;14.55;83.99;97654.23;1720677;82;20633;-88
2021/08/27 06:55:48;;;;;;;;;;;;;;;14.60;84.00;97658.56;1718231;82;24761;-89
2021/08/27 06:58:17;;;;;;;;;;;;;;;14.62;84.05;97657.91;1705129;82;22151;-89
2021/08/27 07:00:45;;;;;;;;;;;;;;;14.65;84.10;97658.94;1712179;83;26040;-88
2021/08/27 07:03:12;;;;;;;;;;;;;;;14.67;84.13;97658.79;1735682;81;24444;-89
2021/08/27 07:05:38;;;;;;;;;;;;;;;14.68;84.16;97661.73;1713081;82;20303;-88
2021/08/27 07:08:04;;;;;;;;;;;;;;;14.72;84.19;97662.28;1710102;82;24906;-88
2021/08/27 07:10:33;;;;;;;;;;;;;;;14.75;84.19;97664.60;1727099;82;20190;-87
2021/08/27 07:12:59;;;;;;;;;;;;;;;14.73;84.19;97665.27;1714575;82;26789;-86
2021/08/27 07:15:25;;;;;;;;;;;;;;;14.66;84.20;97662.40;1716401;82;20833;-86
2021/08/27 07:17:52;;;;;;;;;;;;;;;14.64;84.21;97661.23;1713696;82;20145;-85
2021/08/27 07:20:23;;;;;;;;;;;;;;;14.74;84.26;97664.25;1713772;82;24582;-86
2021/08/27 07:22:47;;;;;;;;;;;;;;;14.73;84.27;97663.94;1711765;82;21930;-86
2021/08/27 07:25:14;;;;;;;;;;;;;;;14.76;84.27;97666.27;1716024;82;25917;-87
2021/08/27 07:27:40;;;;;;;;;;;;;;;14.83;84.32;97669.46;1712965;82;24417;-86
2021/08/27 07:30:07;;;;;;;;;;;;;;;14.86;84.34;97668.31;1726354;81;20300;-87
2021/08/27 07:32:33;;;;;;;;;;;;;;;14.83;84.33;97673.91;1713557;82;24839;-87
2021/08/27 07:35:00;;;;;;;;;;;;;;;14.90;84.35;97678.88;1713848;82;21968;-87
2021/08/27 07:37:26;;;;;;;;;;;;;;;14.93;84.37;97677.27;1710714;82;25962;-87
2021/08/27 07:39:52;;;;;;;;;;;;;;;14.99;84.36;97685.89;1709975;82;24466;-87
2021/08/27 07:42:18;;;;;;;;;;;;;;;15.02;84.34;97680.30;1713917;83;20874;-87
2021/08/27 07:44:45;;;;;;;;;;;;;;;15.05;84.34;97683.45;1715771;82;24895;-87
2021/08/27 07:47:11;;;;;;;;;;;;;;;15.08;84.32;97686.28;1713960;82;22027;-87
2021/08/27 07:49:37;;;;;;;;;;;;;;;15.04;84.32;97681.81;1713816;83;25987;-87
2021/08/27 07:52:05;;;;;;;;;;;;;;;15.02;84.28;97682.93;1735049;82;20267;-87
2021/08/27 07:54:31;;;;;;;;;;;;;;;15.05;84.29;97684.76;1714916;82;20233;-87
2021/08/27 07:56:57;;;;;;;;;;;;;;;15.07;84.26;97688.08;1711645;82;24609;-87
2021/08/27 07:59:23;;;;;;;;;;;;;;;15.07;84.26;97692.03;1713238;82;20278;-87
2021/08/27 08:01:49;;;;;;;;;;;;;;;15.08;84.21;97686.28;1713591;82;21044;-87
2021/08/27 08:04:15;;;;;;;;;;;;;;;15.08;84.20;97689.74;1715032;82;24489;-88
2021/08/27 08:06:42;;;;;;;;;;;;;;;15.11;84.19;97695.18;1713802;82;20257;-88
2021/08/27 08:09:08;;;;;;;;;;;;;;;15.07;84.17;97693.35;1713026;82;24802;-88
2021/08/27 08:11:39;;;;;;;;;;;;;;;15.05;84.17;97699.25;1711461;82;21954;-88
2021/08/27 08:14:05;;;;;;;;;;;;;;;14.99;84.13;97690.67;1713371;82;26588;-89
2021/08/27 08:16:37;;;;;;;;;;;;;;;14.97;84.11;97695.25;1713422;82;24454;-88
2021/08/27 08:19:03;;;;;;;;;;;;;;;14.96;84.08;97704.13;1717150;82;20459;-87
2021/08/27 08:21:31;;;;;;;;;;;;;;;14.92;84.07;97697.52;1728742;81;25488;-87
2021/08/27 08:23:57;;;;;;;;;;;;;;;14.90;84.07;97697.32;1711251;82;22745;-87
2021/08/27 08:26:23;;;;;;;;;;;;;;;14.87;84.05;97698.95;1710513;82;21062;-90
2021/08/27 08:28:50;;;;;;;;;;;;;;;14.81;84.01;97702.19;1710212;82;24553;-90
2021/08/27 08:31:22;;;;;;;;;;;;;;;14.84;84.00;97704.51;1710181;82;20197;-90
2021/08/27 08:33:51;;;;;;;;;;;;;;;14.88;84.00;97711.16;1713389;82;25533;-90
2021/08/27 08:36:17;;;;;;;;;;;;;;;14.91;84.01;97713.47;1714979;82;22045;-90
2021/08/27 08:38:44;;;;;;;;;;;;;;;14.94;84.01;97711.87;1711284;82;26074;-90
2021/08/27 08:41:10;;;;;;;;;;;;;;;14.96;84.03;97712.03;1712150;82;24436;-88
2021/08/27 08:43:36;;;;;;;;;;;;;;;14.96;84.03;97710.72;1712647;82;20308;-89
2021/08/27 08:46:08;;;;;;;;;;;;;;;14.99;84.05;97713.55;1714703;83;24815;-89
2021/08/27 08:48:37;;;;;;;;;;;;;;;15.01;84.06;97715.04;1715064;82;22006;-89
2021/08/27 08:51:05;;;;;;;;;;;;;;;15.04;84.09;97716.56;1725546;81;26430;-87
2021/08/27 08:53:35;;;;;;;;;;;;;;;15.07;84.09;97715.75;1714084;82;24528;-91
2021/08/27 08:56:02;;;;;;;;;;;;;;;15.12;84.12;97722.36;1712556;82;20308;-90
2021/08/27 08:58:35;;;;;;;;;;;;;;;15.14;84.10;97717.30;1711553;82;25615;-90
2021/08/27 09:01:13;;;;;;;;;;;;;;;15.15;84.10;97722.91;1707104;82;22730;-90
2021/08/27 09:03:35;;;;;;;;;;;;;;;15.08;84.11;97724.48;1711253;82;25991;-90
2021/08/27 09:06:01;;;;;;;;;;;;;;;14.95;84.10;97724.03;1713067;82;20865;-90
2021/08/27 09:08:30;;;;;;;;;;;;;;;14.86;84.08;97723.64;1714245;82;20983;-90
2021/08/27 09:10:59;;;;;;;;;;;;;;;14.81;84.06;97723.27;1717523;82;25363;-89
2021/08/27 09:13:31;;;;;;;;;;;;;;;14.83;84.10;97726.59;1716616;82;21986;-86
2021/08/27 09:16:06;;;;;;;;;;;;;;;14.90;84.15;97719.71;1723347;82;26165;-88
2021/08/27 09:18:40;;;;;;;;;;;;;;;14.90;84.18;97721.03;1723753;82;24377;-88
2021/08/27 09:21:24;;;;;;;;;;;;;;;14.98;84.23;97727.22;1723575;82;20266;-88
2021/08/27 09:23:50;;;;;;;;;;;;;;;15.09;84.25;97728.78;1723050;82;24879;-88
2021/08/27 09:26:39;;;;;;;;;;;;;;;15.26;84.28;97731.89;1725254;82;22031;-88
2021/08/27 09:29:05;;;;;;;;;;;;;;;15.32;84.32;97727.33;1723494;82;25958;-88
2021/08/27 09:31:34;;;;;;;;;;;;;;;15.33;84.31;97732.91;1725009;82;24451;-88
2021/08/27 09:34:00;;;;;;;;;;;;;;;15.29;84.32;97734.20;1722288;82;20330;-88
2021/08/27 09:36:31;;;;;;;;;;;;;;;15.35;84.29;97734.08;1721940;83;24576;-88
2021/08/27 09:39:09;;;;;;;;;;;;;;;15.37;84.28;97741.36;1718766;82;22093;-88
2021/08/27 09:41:35;;;;;;;;;;;;;;;15.30;84.26;97735.87;1723233;82;26038;-88
2021/08/27 09:44:02;;;;;;;;;;;;;;;15.35;84.24;97740.67;1723462;82;24459;-88
2021/08/27 09:46:33;;;;;;;;;;;;;;;15.41;84.23;97733.47;1722982;83;20489;-88
2021/08/27 09:49:00;;;;;;;;;;;;;;;15.44;84.19;97737.10;1727371;81;25559;-88
2021/08/27 09:51:39;;;;;;;;;;;;;;;15.46;84.15;97740.42;1724063;82;22013;-88
2021/08/27 09:54:09;;;;;;;;;;;;;;;15.47;84.17;97737.64;1725056;81;27013;-88
2021/08/27 09:56:46;;;;;;;;;;;;;;;15.54;84.13;97739.70;1723863;83;24508;-88
2021/08/27 09:59:17;;;;;;;;;;;;;;;15.60;84.14;97745.16;1723267;83;20431;-89
2021/08/27 10:01:50;;;;;;;;;;;;;;;15.57;84.13;97745.48;1723039;82;24735;-87
2021/08/27 10:04:18;;;;;;;;;;;;;;;15.53;84.11;97748.58;1722113;83;21964;-88
2021/08/27 10:06:46;;;;;;;;;;;;;;;15.51;84.11;97752.66;1723547;82;25994;-88
2021/08/27 10:09:18;;;;;;;;;;;;;;;15.54;84.10;97743.66;1725816;82;24435;-88
2021/08/27 10:11:49;;;;;;;;;;;;;;;15.63;84.11;97746.18;1728005;81;20220;-88
2021/08/27 10:14:16;;;;;;;;;;;;;;;15.79;84.11;97751.55;1716618;82;24922;-89
2021/08/27 10:16:43;;;;;;;;;;;;;;;15.81;84.11;97745.64;1711831;83;22099;-88
2021/08/27 10:19:09;;;;;;;;;;;;;;;15.82;84.11;97745.95;1712294;83;26341;-88
2021/08/27 10:21:35;;;;;;;;;;;;;;;15.89;84.13;97744.34;1714946;83;24436;-88
2021/08/27 10:24:01;;;;;;;;;;;;;;;15.96;84.12;97745.87;1721258;83;20745;-88
2021/08/27 10:26:28;;;;;;;;;;;;;;;16.02;84.12;97743.92;1718501;81;24931;-87
2021/08/27 10:28:54;;;;;;;;;;;;;;;16.09;84.11;97744.13;1710680;83;21946;-88
2021/08/27 10:31:40;;;;;;;;;;;;;;;16.17;84.09;97747.61;1705001;83;26034;-88
2021/08/27 10:34:06;;;;;;;;;;;;;;;16.23;84.01;97743.52;1716759;83;24500;-88
2021/08/27 10:36:35;;;;;;;;;;;;;;;16.24;83.97;97749.12;1710705;83;20491;-88
2021/08/27 10:39:05;;;;;;;;;;;;;;;16.27;83.95;97752.27;1713791;81;25051;-87
2021/08/27 10:41:37;;;;;;;;;;;;;;;16.29;83.90;97748.16;1713366;83;22256;-88
2021/08/27 10:44:09;;;;;;;;;;;;;;;16.28;83.83;97749.14;1714284;83;26132;-87
2021/08/27 10:46:46;;;;;;;;;;;;;;;16.30;83.77;97745.37;1709270;83;24406;-88
2021/08/27 10:49:14;;;;;;;;;;;;;;;16.29;83.71;97746.34;1714371;83;20341;-88
2021/08/27 10:51:41;;;;;;;;;;;;;;;16.23;83.67;97745.66;1716049;83;25584;-89
2021/08/27 10:54:11;;;;;;;;;;;;;;;16.26;83.63;97745.33;1717798;82;20212;-89
2021/08/27 10:56:38;;;;;;;;;;;;;;;16.37;83.61;97744.20;1719190;83;25969;-89
2021/08/27 10:59:06;;;;;;;;;;;;;;;16.46;83.58;97739.30;1723315;82;24915;-89
2021/08/27 11:01:34;;;;;;;;;;;;;;;16.52;83.55;97747.08;1721160;82;20298;-87
2021/08/27 11:04:08;;;;;;;;;;;;;;;16.59;83.48;97742.81;1703623;83;25610;-86
2021/08/27 11:06:34;;;;;;;;;;;;;;;16.62;83.39;97741.19;1701350;83;22751;-87
2021/08/27 11:09:13;;;;;;;;;;;;;;;16.66;83.31;97739.88;1712269;82;26028;-87
2021/08/27 11:11:39;;;;;;;;;;;;;;;16.67;83.26;97734.43;1716865;83;25131;-87
2021/08/27 11:14:15;;;;;;;;;;;;;;;16.73;83.13;97744.84;1716588;83;20240;-87
2021/08/27 11:16:42;;;;;;;;;;;;;;;16.73;83.06;97737.75;1722656;82;24774;-87
2021/08/27 11:19:27;;;;;;;;;;;;;;;16.75;82.96;97741.53;1723066;82;22036;-87
2021/08/27 11:22:12;;;;;;;;;;;;;;;16.79;82.87;97729.67;1721825;82;26719;-87
2021/08/27 11:24:40;;;;;;;;;;;;;;;16.82;82.79;97733.29;1730393;81;24430;-89
2021/08/27 11:27:07;;;;;;;;;;;;;;;16.81;82.74;97729.48;1722707;82;20265;-89
2021/08/27 11:29:35;;;;;;;;;;;;;;;16.81;82.62;97730.80;1720643;81;24750;-89
2021/08/27 11:32:09;;;;;;;;;;;;;;;16.80;82.50;97727.85;1723198;81;22222;-89
2021/08/27 11:34:54;;;;;;;;;;;;;;;16.84;82.44;97730.00;1723300;81;25971;-89
2021/08/27 11:37:22;;;;;;;;;;;;;;;16.82;82.37;97732.46;1723427;81;24491;-89
2021/08/27 11:39:49;;;;;;;;;;;;;;;16.81;82.29;97728.16;1727066;81;20210;-89
2021/08/27 11:42:15;;;;;;;;;;;;;;;16.78;82.22;97727.18;1725414;81;25485;-89
2021/08/27 11:44:45;;;;;;;;;;;;;;;16.76;82.17;97727.33;1725415;81;22118;-89
2021/08/27 11:47:12;;;;;;;;;;;;;;;16.72;82.06;97728.66;1724036;81;26052;-89
2021/08/27 11:49:43;;;;;;;;;;;;;;;16.76;81.94;97722.54;1723956;81;23953;-89
2021/08/27 11:52:11;;;;;;;;;;;;;;;16.82;81.90;97716.11;1723624;81;20446;-89
2021/08/27 11:54:39;;;;;;;;;;;;;;;16.82;81.85;97721.89;1716519;81;25602;-89
2021/08/27 11:57:07;;;;;;;;;;;;;;;16.85;81.75;97727.70;1725847;80;22682;-89
2021/08/27 11:59:33;;;;;;;;;;;;;;;16.98;81.66;97722.73;1723429;82;26881;-88
2021/08/27 12:02:01;;;;;;;;;;;;;;;16.97;81.55;97721.56;1723774;81;20281;-90
2021/08/27 12:04:30;;;;;;;;;;;;;;;16.92;81.43;97720.74;1724178;81;20216;-90
2021/08/27 12:07:12;;;;;;;;;;;;;;;16.96;81.35;97726.05;1721674;81;24834;-90
2021/08/27 12:09:39;;;;;;;;;;;;;;;17.01;81.27;97729.03;1723423;82;22028;-89
2021/08/27 12:12:07;;;;;;;;;;;;;;;17.09;81.14;97730.34;1723684;81;26194;-87
2021/08/27 12:14:49;;;;;;;;;;;;;;;17.07;81.03;97729.66;1720369;81;24592;-86
2021/08/27 12:17:19;;;;;;;;;;;;;;;17.10;80.96;97728.52;1713789;82;20264;-86
2021/08/27 12:19:46;;;;;;;;;;;;;;;17.26;80.96;97729.84;1713651;82;24806;-86
2021/08/27 12:22:12;;;;;;;;;;;;;;;17.33;80.84;97732.66;1715199;82;22039;-86
2021/08/27 12:24:45;;;;;;;;;;;;;;;17.35;80.75;97727.51;1725465;82;26022;-88
2021/08/27 12:27:12;;;;;;;;;;;;;;;17.39;80.67;97728.02;1712438;82;24407;-88
2021/08/27 12:29:39;;;;;;;;;;;;;;;17.46;80.62;97730.31;1714097;82;20221;-87
2021/08/27 13:50:54;;;;;;;;;;;;;;;18.40;75.03;97721.11;1730367;78;99023;-86
2021/08/27 13:53:21;;;;;;;;;;;;;;;18.55;74.87;97718.07;1735812;82;24986;-86
2021/08/27 13:55:47;;;;;;;;;;;;;;;18.67;74.72;97721.16;1731961;81;22068;-86
2021/08/27 13:58:13;;;;;;;;;;;;;;;18.86;74.68;97716.73;1728788;82;26182;-86
2021/08/27 14:00:39;;;;;;;;;;;;;;;19.44;74.87;97720.06;1736521;82;25227;-86
2021/08/27 14:03:12;;;;;;;;;;;;;;;20.56;75.58;97719.00;1733537;80;20285;-90
2021/08/27 14:05:37;;;;;;;;;;;;;;;21.84;76.36;97718.41;1705995;82;20187;-90
2021/08/27 14:08:03;;;;;;;;;;;;;;;23.22;76.82;97718.95;1734624;80;20250;-86
2021/08/27 14:10:29;;;;;;;;;;;;;;;24.36;76.85;97728.81;1735926;81;26611;-85
2021/08/27 14:12:59;;;;;;;;;;;;;;;25.31;76.43;97723.06;1737659;82;24433;-86